sensor_id;sensor_type;location;lat;lon;timestamp;temperature;humidity
27540;DHT22;15906;52.046;4.724;2024-03-25T00:00:10;5.10;99.90
27540;DHT22;15906;52.046;4.724;2024-03-25T00:02:37;5.00;99.90
27540;DHT22;15906;52.046;4.724;2024-03-25T00:05:03;5.00;99.90
27540;DHT22;15906;52.046;4.724;2024-03-25T00:07:30;4.90;99.90
27540;DHT22;15906;52.046;4.724;2024-03-25T00:09:56;4.90;99.90
27540;DHT22;15906;52.046;4.724;2024-03-25T00:12:27;4.90;99.90
27540;DHT22;15906;52.046;4.724;2024-03-25T00:14:52;4.90;99.90
27540;DHT22;15906;52.046;4.724;2024-03-25T00:17:18;4.90;99.90
27540;DHT22;15906;52.046;4.724;2024-03-25T00:19:45;4.80;99.90
27540;DHT22;15906;52.046;4.724;2024-03-25T00:22:16;4.80;99.90
27540;DHT22;15906;52.046;4.724;2024-03-25T00:24:42;4.80;99.90
27540;DHT22;15906;52.046;4.724;2024-03-25T00:27:08;4.80;99.90
27540;DHT22;15906;52.046;4.724;2024-03-25T00:29:33;4.80;99.90
27540;DHT22;15906;52.046;4.724;2024-03-25T00:31:59;4.70;99.90
27540;DHT22;15906;52.046;4.724;2024-03-25T00:34:24;4.60;99.90
27540;DHT22;15906;52.046;4.724;2024-03-25T00:36:50;4.60;99.90
27540;DHT22;15906;52.046;4.724;2024-03-25T00:39:15;4.60;99.90
27540;DHT22;15906;52.046;4.724;2024-03-25T00:41:41;4.60;99.90
27540;DHT22;15906;52.046;4.724;2024-03-25T00:44:07;4.60;99.90
27540;DHT22;15906;52.046;4.724;2024-03-25T00:46:32;4.50;99.90
27540;DHT22;15906;52.046;4.724;2024-03-25T00:48:58;4.50;99.90
27540;DHT22;15906;52.046;4.724;2024-03-25T00:51:24;4.60;99.90
27540;DHT22;15906;52.046;4.724;2024-03-25T00:53:49;4.60;99.90
27540;DHT22;15906;52.046;4.724;2024-03-25T00:56:15;4.60;99.90
27540;DHT22;15906;52.046;4.724;2024-03-25T00:58:41;4.60;99.90
27540;DHT22;15906;52.046;4.724;2024-03-25T01:01:07;4.60;99.90
27540;DHT22;15906;52.046;4.724;2024-03-25T01:03:32;4.60;99.90
27540;DHT22;15906;52.046;4.724;2024-03-25T01:05:59;4.70;99.90
27540;DHT22;15906;52.046;4.724;2024-03-25T01:08:25;4.70;99.90
27540;DHT22;15906;52.046;4.724;2024-03-25T01:10:50;4.70;99.90
27540;DHT22;15906;52.046;4.724;2024-03-25T01:13:16;4.70;99.90
27540;DHT22;15906;52.046;4.724;2024-03-25T01:15:41;4.70;99.90
27540;DHT22;15906;52.046;4.724;2024-03-25T01:18:07;4.70;99.90
27540;DHT22;15906;52.046;4.724;2024-03-25T01:20:33;4.70;99.90
27540;DHT22;15906;52.046;4.724;2024-03-25T01:22:59;4.70;99.90
27540;DHT22;15906;52.046;4.724;2024-03-25T01:25:25;4.60;99.90
27540;DHT22;15906;52.046;4.724;2024-03-25T01:27:51;4.60;99.90
27540;DHT22;15906;52.046;4.724;2024-03-25T01:30:17;4.60;99.90
27540;DHT22;15906;52.046;4.724;2024-03-25T01:32:44;4.60;99.90
27540;DHT22;15906;52.046;4.724;2024-03-25T01:35:12;4.60;99.90
27540;DHT22;15906;52.046;4.724;2024-03-25T01:37:37;4.60;99.90
27540;DHT22;15906;52.046;4.724;2024-03-25T01:40:03;4.70;99.90
27540;DHT22;15906;52.046;4.724;2024-03-25T01:42:30;4.70;99.90
27540;DHT22;15906;52.046;4.724;2024-03-25T01:44:55;4.70;99.90
27540;DHT22;15906;52.046;4.724;2024-03-25T01:47:21;4.80;99.90
27540;DHT22;15906;52.046;4.724;2024-03-25T01:49:47;4.80;99.90
27540;DHT22;15906;52.046;4.724;2024-03-25T01:52:13;4.80;99.90
27540;DHT22;15906;52.046;4.724;2024-03-25T01:54:39;4.90;99.90
27540;DHT22;15906;52.046;4.724;2024-03-25T01:57:05;4.90;99.90
27540;DHT22;15906;52.046;4.724;2024-03-25T01:59:31;4.80;99.90
27540;DHT22;15906;52.046;4.724;2024-03-25T02:01:57;4.80;99.90
27540;DHT22;15906;52.046;4.724;2024-03-25T02:04:23;4.80;99.90
27540;DHT22;15906;52.046;4.724;2024-03-25T02:06:49;4.80;99.90
27540;DHT22;15906;52.046;4.724;2024-03-25T02:09:15;4.80;99.90
27540;DHT22;15906;52.046;4.724;2024-03-25T02:11:42;4.70;99.90
27540;DHT22;15906;52.046;4.724;2024-03-25T02:14:07;4.80;99.90
27540;DHT22;15906;52.046;4.724;2024-03-25T02:16:34;4.80;99.90
27540;DHT22;15906;52.046;4.724;2024-03-25T02:19:00;4.80;99.90
27540;DHT22;15906;52.046;4.724;2024-03-25T02:21:25;4.70;99.90
27540;DHT22;15906;52.046;4.724;2024-03-25T02:23:53;4.70;99.90
27540;DHT22;15906;52.046;4.724;2024-03-25T02:26:21;4.70;99.90
27540;DHT22;15906;52.046;4.724;2024-03-25T02:28:46;4.70;99.90
27540;DHT22;15906;52.046;4.724;2024-03-25T02:31:12;4.60;99.90
27540;DHT22;15906;52.046;4.724;2024-03-25T02:33:37;4.60;99.90
27540;DHT22;15906;52.046;4.724;2024-03-25T02:36:03;4.50;99.90
27540;DHT22;15906;52.046;4.724;2024-03-25T02:38:29;4.50;99.90
27540;DHT22;15906;52.046;4.724;2024-03-25T02:40:55;4.50;99.90
27540;DHT22;15906;52.046;4.724;2024-03-25T05:14:56;3.90;99.90
27540;DHT22;15906;52.046;4.724;2024-03-25T05:17:22;3.90;99.90
27540;DHT22;15906;52.046;4.724;2024-03-25T05:19:48;3.90;99.90
27540;DHT22;15906;52.046;4.724;2024-03-25T05:22:13;3.90;99.90
27540;DHT22;15906;52.046;4.724;2024-03-25T05:24:39;3.80;99.90
27540;DHT22;15906;52.046;4.724;2024-03-25T05:27:04;3.80;99.90
27540;DHT22;15906;52.046;4.724;2024-03-25T05:29:30;3.80;99.90
27540;DHT22;15906;52.046;4.724;2024-03-25T05:31:58;3.70;99.90
27540;DHT22;15906;52.046;4.724;2024-03-25T05:34:24;3.70;99.90
27540;DHT22;15906;52.046;4.724;2024-03-25T05:36:50;3.70;99.90
27540;DHT22;15906;52.046;4.724;2024-03-25T05:39:16;3.60;99.90
27540;DHT22;15906;52.046;4.724;2024-03-25T05:41:41;3.50;99.90
27540;DHT22;15906;52.046;4.724;2024-03-25T05:44:07;3.50;99.90
27540;DHT22;15906;52.046;4.724;2024-03-25T05:46:33;3.50;99.90
27540;DHT22;15906;52.046;4.724;2024-03-25T05:49:02;3.50;99.90
27540;DHT22;15906;52.046;4.724;2024-03-25T05:51:28;3.50;99.90
27540;DHT22;15906;52.046;4.724;2024-03-25T05:53:53;3.50;99.90
27540;DHT22;15906;52.046;4.724;2024-03-25T05:56:19;3.50;99.90
27540;DHT22;15906;52.046;4.724;2024-03-25T05:58:44;3.50;99.90
27540;DHT22;15906;52.046;4.724;2024-03-25T06:01:10;3.40;99.90
27540;DHT22;15906;52.046;4.724;2024-03-25T06:03:35;3.40;99.90
27540;DHT22;15906;52.046;4.724;2024-03-25T06:06:01;3.40;99.90
27540;DHT22;15906;52.046;4.724;2024-03-25T06:08:27;3.40;99.90
27540;DHT22;15906;52.046;4.724;2024-03-25T06:10:54;3.40;99.90
27540;DHT22;15906;52.046;4.724;2024-03-25T06:13:21;3.50;99.90
27540;DHT22;15906;52.046;4.724;2024-03-25T06:15:47;3.50;99.90
27540;DHT22;15906;52.046;4.724;2024-03-25T06:18:12;3.60;99.90
27540;DHT22;15906;52.046;4.724;2024-03-25T06:20:38;3.80;99.90
27540;DHT22;15906;52.046;4.724;2024-03-25T06:23:04;3.80;99.90
27540;DHT22;15906;52.046;4.724;2024-03-25T06:25:30;3.90;99.90
27540;DHT22;15906;52.046;4.724;2024-03-25T06:27:56;4.00;99.90
27540;DHT22;15906;52.046;4.724;2024-03-25T06:30:22;4.00;99.90
27540;DHT22;15906;52.046;4.724;2024-03-25T06:33:06;4.00;99.90
27540;DHT22;15906;52.046;4.724;2024-03-25T06:35:50;4.00;99.90
27540;DHT22;15906;52.046;4.724;2024-03-25T06:38:17;4.20;99.90
27540;DHT22;15906;52.046;4.724;2024-03-25T06:40:44;4.20;99.90
27540;DHT22;15906;52.046;4.724;2024-03-25T06:43:10;4.40;99.90
27540;DHT22;15906;52.046;4.724;2024-03-25T06:45:35;4.60;99.90
27540;DHT22;15906;52.046;4.724;2024-03-25T06:48:01;4.70;99.90
27540;DHT22;15906;52.046;4.724;2024-03-25T06:50:27;4.70;99.90
27540;DHT22;15906;52.046;4.724;2024-03-25T06:52:52;4.90;99.90
27540;DHT22;15906;52.046;4.724;2024-03-25T06:55:18;4.90;99.90
27540;DHT22;15906;52.046;4.724;2024-03-25T06:57:48;5.00;99.90
27540;DHT22;15906;52.046;4.724;2024-03-25T07:00:14;5.00;99.90
27540;DHT22;15906;52.046;4.724;2024-03-25T07:02:40;5.10;99.90
27540;DHT22;15906;52.046;4.724;2024-03-25T07:05:06;5.10;99.90
27540;DHT22;15906;52.046;4.724;2024-03-25T07:07:32;5.10;99.90
27540;DHT22;15906;52.046;4.724;2024-03-25T07:09:59;5.20;99.90
27540;DHT22;15906;52.046;4.724;2024-03-25T07:12:24;5.40;99.90
27540;DHT22;15906;52.046;4.724;2024-03-25T07:14:50;5.30;99.90
27540;DHT22;15906;52.046;4.724;2024-03-25T07:17:16;5.40;99.90
27540;DHT22;15906;52.046;4.724;2024-03-25T07:19:41;5.50;99.90
27540;DHT22;15906;52.046;4.724;2024-03-25T07:22:08;5.60;99.90
27540;DHT22;15906;52.046;4.724;2024-03-25T07:24:33;5.90;99.90
27540;DHT22;15906;52.046;4.724;2024-03-25T07:26:59;6.20;99.90
27540;DHT22;15906;52.046;4.724;2024-03-25T07:29:24;6.50;99.90
27540;DHT22;15906;52.046;4.724;2024-03-25T07:31:50;7.00;99.90
27540;DHT22;15906;52.046;4.724;2024-03-25T07:34:15;7.80;99.90
27540;DHT22;15906;52.046;4.724;2024-03-25T07:36:41;7.90;99.90
27540;DHT22;15906;52.046;4.724;2024-03-25T07:39:07;8.20;99.90
27540;DHT22;15906;52.046;4.724;2024-03-25T07:41:39;8.40;99.90
27540;DHT22;15906;52.046;4.724;2024-03-25T07:44:04;8.60;99.90
27540;DHT22;15906;52.046;4.724;2024-03-25T07:46:30;8.60;99.90
27540;DHT22;15906;52.046;4.724;2024-03-25T07:48:56;8.70;99.90
27540;DHT22;15906;52.046;4.724;2024-03-25T07:51:22;8.80;99.90
27540;DHT22;15906;52.046;4.724;2024-03-25T07:53:47;9.10;99.90
27540;DHT22;15906;52.046;4.724;2024-03-25T07:56:15;9.30;99.90
27540;DHT22;15906;52.046;4.724;2024-03-25T07:58:41;9.30;99.90
27540;DHT22;15906;52.046;4.724;2024-03-25T08:01:06;9.00;99.90
27540;DHT22;15906;52.046;4.724;2024-03-25T08:03:32;9.00;99.90
27540;DHT22;15906;52.046;4.724;2024-03-25T08:05:59;8.90;99.90
27540;DHT22;15906;52.046;4.724;2024-03-25T08:08:24;8.80;99.90
27540;DHT22;15906;52.046;4.724;2024-03-25T08:10:50;8.70;99.90
27540;DHT22;15906;52.046;4.724;2024-03-25T08:13:18;8.70;99.90
27540;DHT22;15906;52.046;4.724;2024-03-25T08:15:45;8.90;99.90
27540;DHT22;15906;52.046;4.724;2024-03-25T08:18:11;8.70;99.90
27540;DHT22;15906;52.046;4.724;2024-03-25T08:20:37;8.70;99.90
27540;DHT22;15906;52.046;4.724;2024-03-25T08:23:02;8.80;99.90
27540;DHT22;15906;52.046;4.724;2024-03-25T08:25:28;8.90;99.90
27540;DHT22;15906;52.046;4.724;2024-03-25T08:27:54;9.00;99.90
27540;DHT22;15906;52.046;4.724;2024-03-25T08:30:20;9.30;99.90
27540;DHT22;15906;52.046;4.724;2024-03-25T08:32:45;9.30;99.90
27540;DHT22;15906;52.046;4.724;2024-03-25T08:35:11;9.40;99.90
27540;DHT22;15906;52.046;4.724;2024-03-25T08:37:36;9.40;99.90
27540;DHT22;15906;52.046;4.724;2024-03-25T08:40:02;9.80;99.90
27540;DHT22;15906;52.046;4.724;2024-03-25T08:42:29;9.80;99.90
27540;DHT22;15906;52.046;4.724;2024-03-25T08:44:55;10.00;99.90
27540;DHT22;15906;52.046;4.724;2024-03-25T08:47:20;10.10;99.90
27540;DHT22;15906;52.046;4.724;2024-03-25T08:49:46;10.20;99.90
27540;DHT22;15906;52.046;4.724;2024-03-25T08:52:12;10.60;99.90
27540;DHT22;15906;52.046;4.724;2024-03-25T08:54:38;10.70;99.90
27540;DHT22;15906;52.046;4.724;2024-03-25T08:57:03;10.90;99.90
27540;DHT22;15906;52.046;4.724;2024-03-25T08:59:30;11.00;99.90
27540;DHT22;15906;52.046;4.724;2024-03-25T09:01:55;10.90;99.90
27540;DHT22;15906;52.046;4.724;2024-03-25T09:04:21;11.10;99.90
27540;DHT22;15906;52.046;4.724;2024-03-25T09:06:46;11.10;99.90
27540;DHT22;15906;52.046;4.724;2024-03-25T09:09:13;11.20;99.90
27540;DHT22;15906;52.046;4.724;2024-03-25T09:11:57;11.10;99.90
27540;DHT22;15906;52.046;4.724;2024-03-25T09:14:23;10.80;99.90
27540;DHT22;15906;52.046;4.724;2024-03-25T09:16:48;11.10;99.90
27540;DHT22;15906;52.046;4.724;2024-03-25T09:19:14;11.10;99.90
27540;DHT22;15906;52.046;4.724;2024-03-25T09:21:39;11.30;99.90
27540;DHT22;15906;52.046;4.724;2024-03-25T09:24:05;11.40;99.90
27540;DHT22;15906;52.046;4.724;2024-03-25T09:26:31;11.40;99.90
27540;DHT22;15906;52.046;4.724;2024-03-25T09:28:56;11.50;99.90
27540;DHT22;15906;52.046;4.724;2024-03-25T09:31:22;11.40;99.90
27540;DHT22;15906;52.046;4.724;2024-03-25T09:33:48;11.40;99.90
27540;DHT22;15906;52.046;4.724;2024-03-25T09:36:13;11.50;99.90
27540;DHT22;15906;52.046;4.724;2024-03-25T09:38:39;11.80;99.90
27540;DHT22;15906;52.046;4.724;2024-03-25T09:41:04;11.50;99.90
27540;DHT22;15906;52.046;4.724;2024-03-25T09:43:44;11.70;99.90
27540;DHT22;15906;52.046;4.724;2024-03-25T09:46:11;11.80;99.90
27540;DHT22;15906;52.046;4.724;2024-03-25T09:48:37;11.90;99.90
27540;DHT22;15906;52.046;4.724;2024-03-25T09:51:06;11.70;99.90
27540;DHT22;15906;52.046;4.724;2024-03-25T09:53:32;11.70;99.90
27540;DHT22;15906;52.046;4.724;2024-03-25T09:55:58;11.70;99.90
27540;DHT22;15906;52.046;4.724;2024-03-25T09:58:25;11.70;99.90
27540;DHT22;15906;52.046;4.724;2024-03-25T10:00:51;11.60;99.90
27540;DHT22;15906;52.046;4.724;2024-03-25T10:03:17;11.30;99.90
27540;DHT22;15906;52.046;4.724;2024-03-25T10:05:43;11.00;99.90
27540;DHT22;15906;52.046;4.724;2024-03-25T10:08:08;11.00;99.90
27540;DHT22;15906;52.046;4.724;2024-03-25T10:10:35;11.10;99.90
27540;DHT22;15906;52.046;4.724;2024-03-25T10:13:03;11.10;99.90
27540;DHT22;15906;52.046;4.724;2024-03-25T10:15:29;10.90;99.90
27540;DHT22;15906;52.046;4.724;2024-03-25T10:17:55;10.80;99.90
27540;DHT22;15906;52.046;4.724;2024-03-25T10:20:20;10.80;99.90
27540;DHT22;15906;52.046;4.724;2024-03-25T10:22:46;10.80;99.90
27540;DHT22;15906;52.046;4.724;2024-03-25T10:25:29;10.70;99.90
27540;DHT22;15906;52.046;4.724;2024-03-25T10:28:01;10.80;99.90
27540;DHT22;15906;52.046;4.724;2024-03-25T10:30:29;10.70;99.90
27540;DHT22;15906;52.046;4.724;2024-03-25T10:33:01;11.00;99.90
27540;DHT22;15906;52.046;4.724;2024-03-25T10:35:28;11.10;99.90
27540;DHT22;15906;52.046;4.724;2024-03-25T10:38:10;11.40;99.90
27540;DHT22;15906;52.046;4.724;2024-03-25T10:40:37;11.50;99.90
27540;DHT22;15906;52.046;4.724;2024-03-25T10:43:05;11.80;99.90
27540;DHT22;15906;52.046;4.724;2024-03-25T10:45:47;12.00;99.90
27540;DHT22;15906;52.046;4.724;2024-03-25T10:48:21;12.20;99.90
27540;DHT22;15906;52.046;4.724;2024-03-25T10:50:52;12.30;99.90
27540;DHT22;15906;52.046;4.724;2024-03-25T10:53:19;12.50;99.90
27540;DHT22;15906;52.046;4.724;2024-03-25T10:55:50;12.50;99.90
27540;DHT22;15906;52.046;4.724;2024-03-25T10:58:17;13.00;99.90
27540;DHT22;15906;52.046;4.724;2024-03-25T11:00:45;13.00;99.90
27540;DHT22;15906;52.046;4.724;2024-03-25T11:03:11;12.80;99.90
27540;DHT22;15906;52.046;4.724;2024-03-25T11:05:37;13.00;99.90
27540;DHT22;15906;52.046;4.724;2024-03-25T11:10:43;13.10;99.90
27540;DHT22;15906;52.046;4.724;2024-03-25T11:13:13;13.00;99.90
27540;DHT22;15906;52.046;4.724;2024-03-25T11:15:43;12.90;99.90
27540;DHT22;15906;52.046;4.724;2024-03-25T11:18:13;13.30;99.90
27540;DHT22;15906;52.046;4.724;2024-03-25T11:20:39;13.20;99.90
27540;DHT22;15906;52.046;4.724;2024-03-25T11:23:09;13.20;99.90
27540;DHT22;15906;52.046;4.724;2024-03-25T11:25:36;13.30;99.90
27540;DHT22;15906;52.046;4.724;2024-03-25T11:28:02;13.20;99.90
27540;DHT22;15906;52.046;4.724;2024-03-25T11:30:28;13.20;99.90
27540;DHT22;15906;52.046;4.724;2024-03-25T11:32:55;13.20;99.30
27540;DHT22;15906;52.046;4.724;2024-03-25T11:35:21;13.20;99.90
27540;DHT22;15906;52.046;4.724;2024-03-25T11:37:47;13.10;99.50
27540;DHT22;15906;52.046;4.724;2024-03-25T11:40:13;13.30;99.90
27540;DHT22;15906;52.046;4.724;2024-03-25T11:42:40;13.30;98.60
27540;DHT22;15906;52.046;4.724;2024-03-25T11:45:16;13.10;98.90
27540;DHT22;15906;52.046;4.724;2024-03-25T11:47:47;13.10;97.00
27540;DHT22;15906;52.046;4.724;2024-03-25T11:50:15;13.30;97.20
27540;DHT22;15906;52.046;4.724;2024-03-25T11:52:41;13.30;98.20
27540;DHT22;15906;52.046;4.724;2024-03-25T11:55:07;13.70;99.10
27540;DHT22;15906;52.046;4.724;2024-03-25T11:57:35;13.90;98.90
27540;DHT22;15906;52.046;4.724;2024-03-25T12:00:01;13.80;98.30
27540;DHT22;15906;52.046;4.724;2024-03-25T12:02:30;13.90;99.90
27540;DHT22;15906;52.046;4.724;2024-03-25T12:04:56;13.90;96.20
27540;DHT22;15906;52.046;4.724;2024-03-25T12:07:21;14.00;95.70
27540;DHT22;15906;52.046;4.724;2024-03-25T12:09:47;14.20;95.50
27540;DHT22;15906;52.046;4.724;2024-03-25T12:12:32;14.20;97.80
27540;DHT22;15906;52.046;4.724;2024-03-25T12:15:00;14.20;94.40
27540;DHT22;15906;52.046;4.724;2024-03-25T12:17:28;14.10;99.00
27540;DHT22;15906;52.046;4.724;2024-03-25T12:20:07;14.10;97.60
27540;DHT22;15906;52.046;4.724;2024-03-25T12:22:36;14.30;93.30
27540;DHT22;15906;52.046;4.724;2024-03-25T12:25:03;14.40;93.90
27540;DHT22;15906;52.046;4.724;2024-03-25T12:27:32;14.10;93.10
27540;DHT22;15906;52.046;4.724;2024-03-25T12:30:19;14.20;95.70
27540;DHT22;15906;52.046;4.724;2024-03-25T12:32:45;14.40;94.70
27540;DHT22;15906;52.046;4.724;2024-03-25T12:37:40;13.90;93.40
27540;DHT22;15906;52.046;4.724;2024-03-25T12:40:07;13.90;94.20
27540;DHT22;15906;52.046;4.724;2024-03-25T12:42:35;14.00;94.80
27540;DHT22;15906;52.046;4.724;2024-03-25T12:45:01;14.30;95.10
27540;DHT22;15906;52.046;4.724;2024-03-25T12:47:26;14.10;94.20
27540;DHT22;15906;52.046;4.724;2024-03-25T12:49:52;14.20;94.60
27540;DHT22;15906;52.046;4.724;2024-03-25T12:52:18;14.10;94.50
27540;DHT22;15906;52.046;4.724;2024-03-25T12:54:43;14.00;94.40
27540;DHT22;15906;52.046;4.724;2024-03-25T12:57:10;14.30;93.40
27540;DHT22;15906;52.046;4.724;2024-03-25T12:59:36;13.60;94.00
27540;DHT22;15906;52.046;4.724;2024-03-25T13:02:02;13.20;96.00
27540;DHT22;15906;52.046;4.724;2024-03-25T13:04:28;12.90;97.40
27540;DHT22;15906;52.046;4.724;2024-03-25T13:06:53;13.20;99.50
27540;DHT22;15906;52.046;4.724;2024-03-25T13:09:19;13.60;99.10
27540;DHT22;15906;52.046;4.724;2024-03-25T13:11:45;13.50;98.70
27540;DHT22;15906;52.046;4.724;2024-03-25T13:14:12;13.60;98.80
27540;DHT22;15906;52.046;4.724;2024-03-25T13:16:38;13.70;95.70
27540;DHT22;15906;52.046;4.724;2024-03-25T13:19:04;13.80;99.00
27540;DHT22;15906;52.046;4.724;2024-03-25T13:21:30;14.10;95.70
27540;DHT22;15906;52.046;4.724;2024-03-25T13:23:56;14.30;95.30
27540;DHT22;15906;52.046;4.724;2024-03-25T13:26:22;13.70;95.10
27540;DHT22;15906;52.046;4.724;2024-03-25T13:28:47;13.70;98.80
27540;DHT22;15906;52.046;4.724;2024-03-25T13:31:13;13.70;95.70
27540;DHT22;15906;52.046;4.724;2024-03-25T13:33:39;14.00;98.70
27540;DHT22;15906;52.046;4.724;2024-03-25T13:36:05;14.20;96.00
27540;DHT22;15906;52.046;4.724;2024-03-25T13:38:32;14.10;93.30
27540;DHT22;15906;52.046;4.724;2024-03-25T13:40:59;13.70;90.80
27540;DHT22;15906;52.046;4.724;2024-03-25T13:43:24;13.40;92.00
27540;DHT22;15906;52.046;4.724;2024-03-25T13:45:50;13.10;93.40
27540;DHT22;15906;52.046;4.724;2024-03-25T13:48:16;12.90;95.00
27540;DHT22;15906;52.046;4.724;2024-03-25T13:50:42;12.90;96.90
27540;DHT22;15906;52.046;4.724;2024-03-25T13:53:11;12.80;98.90
27540;DHT22;15906;52.046;4.724;2024-03-25T13:55:36;12.80;96.60
27540;DHT22;15906;52.046;4.724;2024-03-25T13:58:02;12.60;97.80
27540;DHT22;15906;52.046;4.724;2024-03-25T14:00:28;12.50;99.40
27540;DHT22;15906;52.046;4.724;2024-03-25T14:02:54;12.60;99.40
27540;DHT22;15906;52.046;4.724;2024-03-25T14:05:21;12.90;99.10
27540;DHT22;15906;52.046;4.724;2024-03-25T14:07:47;13.10;97.50
27540;DHT22;15906;52.046;4.724;2024-03-25T14:10:12;13.00;96.60
27540;DHT22;15906;52.046;4.724;2024-03-25T14:12:38;12.90;98.50
27540;DHT22;15906;52.046;4.724;2024-03-25T14:15:03;12.80;98.00
27540;DHT22;15906;52.046;4.724;2024-03-25T14:17:29;12.80;98.40
27540;DHT22;15906;52.046;4.724;2024-03-25T14:19:56;12.90;97.40
27540;DHT22;15906;52.046;4.724;2024-03-25T14:22:22;12.90;98.20
27540;DHT22;15906;52.046;4.724;2024-03-25T14:24:47;13.00;96.20
27540;DHT22;15906;52.046;4.724;2024-03-25T14:27:13;12.90;97.00
27540;DHT22;15906;52.046;4.724;2024-03-25T14:29:39;12.90;96.30
27540;DHT22;15906;52.046;4.724;2024-03-25T14:32:06;12.90;96.30
27540;DHT22;15906;52.046;4.724;2024-03-25T14:34:31;12.90;93.70
27540;DHT22;15906;52.046;4.724;2024-03-25T14:36:58;12.90;96.10
27540;DHT22;15906;52.046;4.724;2024-03-25T14:39:23;12.60;97.60
27540;DHT22;15906;52.046;4.724;2024-03-25T14:41:50;12.60;97.30
27540;DHT22;15906;52.046;4.724;2024-03-25T14:44:15;12.70;96.20
27540;DHT22;15906;52.046;4.724;2024-03-25T14:46:41;12.80;95.50
27540;DHT22;15906;52.046;4.724;2024-03-25T14:49:06;12.80;97.30
27540;DHT22;15906;52.046;4.724;2024-03-25T14:51:32;12.70;95.60
27540;DHT22;15906;52.046;4.724;2024-03-25T14:53:57;12.60;96.30
27540;DHT22;15906;52.046;4.724;2024-03-25T14:56:23;12.60;97.40
27540;DHT22;15906;52.046;4.724;2024-03-25T14:58:49;12.50;94.60
27540;DHT22;15906;52.046;4.724;2024-03-25T15:01:14;12.40;95.80
27540;DHT22;15906;52.046;4.724;2024-03-25T15:03:40;12.40;97.90
27540;DHT22;15906;52.046;4.724;2024-03-25T15:06:05;12.30;97.00
27540;DHT22;15906;52.046;4.724;2024-03-25T15:08:31;12.10;96.80
27540;DHT22;15906;52.046;4.724;2024-03-25T15:10:57;12.00;96.70
27540;DHT22;15906;52.046;4.724;2024-03-25T15:13:23;12.00;94.90
27540;DHT22;15906;52.046;4.724;2024-03-25T15:15:48;12.00;95.30
27540;DHT22;15906;52.046;4.724;2024-03-25T15:18:14;11.90;96.50
27540;DHT22;15906;52.046;4.724;2024-03-25T15:20:39;11.90;97.30
27540;DHT22;15906;52.046;4.724;2024-03-25T15:23:05;11.90;97.20
27540;DHT22;15906;52.046;4.724;2024-03-25T15:25:32;11.80;97.40
27540;DHT22;15906;52.046;4.724;2024-03-25T15:27:57;11.90;96.00
27540;DHT22;15906;52.046;4.724;2024-03-25T15:30:23;11.90;94.40
27540;DHT22;15906;52.046;4.724;2024-03-25T15:32:49;11.90;95.70
27540;DHT22;15906;52.046;4.724;2024-03-25T15:35:14;11.80;95.90
27540;DHT22;15906;52.046;4.724;2024-03-25T15:37:40;11.80;96.00
27540;DHT22;15906;52.046;4.724;2024-03-25T15:40:07;11.80;96.80
27540;DHT22;15906;52.046;4.724;2024-03-25T15:42:34;11.90;94.70
27540;DHT22;15906;52.046;4.724;2024-03-25T15:45:00;11.90;97.50
27540;DHT22;15906;52.046;4.724;2024-03-25T15:47:26;11.90;96.40
27540;DHT22;15906;52.046;4.724;2024-03-25T15:49:51;11.80;94.50
27540;DHT22;15906;52.046;4.724;2024-03-25T15:52:17;11.80;95.20
27540;DHT22;15906;52.046;4.724;2024-03-25T15:54:43;11.80;96.00
27540;DHT22;15906;52.046;4.724;2024-03-25T15:57:08;11.90;97.50
27540;DHT22;15906;52.046;4.724;2024-03-25T15:59:34;11.80;96.70
27540;DHT22;15906;52.046;4.724;2024-03-25T16:01:59;11.80;96.40
27540;DHT22;15906;52.046;4.724;2024-03-25T16:04:25;11.80;95.00
27540;DHT22;15906;52.046;4.724;2024-03-25T16:06:50;11.80;94.70
27540;DHT22;15906;52.046;4.724;2024-03-25T16:09:17;11.70;96.70
27540;DHT22;15906;52.046;4.724;2024-03-25T16:11:42;11.50;96.20
27540;DHT22;15906;52.046;4.724;2024-03-25T16:14:08;11.50;95.50
27540;DHT22;15906;52.046;4.724;2024-03-25T16:16:34;11.50;96.00
27540;DHT22;15906;52.046;4.724;2024-03-25T16:19:00;11.50;98.00
27540;DHT22;15906;52.046;4.724;2024-03-25T16:21:26;11.40;97.20
27540;DHT22;15906;52.046;4.724;2024-03-25T16:23:52;11.30;98.70
27540;DHT22;15906;52.046;4.724;2024-03-25T16:26:17;11.30;99.00
27540;DHT22;15906;52.046;4.724;2024-03-25T16:28:43;11.20;98.50
27540;DHT22;15906;52.046;4.724;2024-03-25T16:31:08;11.10;98.30
27540;DHT22;15906;52.046;4.724;2024-03-25T16:33:34;11.10;98.60
27540;DHT22;15906;52.046;4.724;2024-03-25T16:36:00;11.00;98.00
27540;DHT22;15906;52.046;4.724;2024-03-25T16:38:26;11.00;99.30
27540;DHT22;15906;52.046;4.724;2024-03-25T16:40:51;10.90;99.20
27540;DHT22;15906;52.046;4.724;2024-03-25T16:43:17;11.00;99.90
27540;DHT22;15906;52.046;4.724;2024-03-25T16:45:43;11.00;99.90
27540;DHT22;15906;52.046;4.724;2024-03-25T16:48:08;11.00;99.50
27540;DHT22;15906;52.046;4.724;2024-03-25T16:50:37;10.90;99.80
27540;DHT22;15906;52.046;4.724;2024-03-25T16:53:03;10.80;99.90
27540;DHT22;15906;52.046;4.724;2024-03-25T16:55:28;10.80;99.00
27540;DHT22;15906;52.046;4.724;2024-03-25T16:57:54;10.80;99.40
27540;DHT22;15906;52.046;4.724;2024-03-25T17:00:19;10.70;99.90
27540;DHT22;15906;52.046;4.724;2024-03-25T17:02:45;10.70;99.90
27540;DHT22;15906;52.046;4.724;2024-03-25T17:05:11;10.70;99.90
27540;DHT22;15906;52.046;4.724;2024-03-25T17:07:37;10.60;99.90
27540;DHT22;15906;52.046;4.724;2024-03-25T17:10:03;10.60;99.90
27540;DHT22;15906;52.046;4.724;2024-03-25T17:12:28;10.50;99.90
27540;DHT22;15906;52.046;4.724;2024-03-25T17:14:54;10.50;99.90
27540;DHT22;15906;52.046;4.724;2024-03-25T17:17:20;10.40;99.90
27540;DHT22;15906;52.046;4.724;2024-03-25T17:19:46;10.30;99.90
27540;DHT22;15906;52.046;4.724;2024-03-25T17:22:12;10.30;99.90
27540;DHT22;15906;52.046;4.724;2024-03-25T17:24:41;10.20;99.90
27540;DHT22;15906;52.046;4.724;2024-03-25T17:27:07;10.20;99.90
27540;DHT22;15906;52.046;4.724;2024-03-25T17:29:32;10.20;99.90
27540;DHT22;15906;52.046;4.724;2024-03-25T17:31:58;10.10;99.90
27540;DHT22;15906;52.046;4.724;2024-03-25T17:34:23;10.10;99.90
27540;DHT22;15906;52.046;4.724;2024-03-25T17:36:49;10.00;99.90
27540;DHT22;15906;52.046;4.724;2024-03-25T17:39:16;9.90;99.90
27540;DHT22;15906;52.046;4.724;2024-03-25T17:41:42;9.90;99.90
27540;DHT22;15906;52.046;4.724;2024-03-25T17:44:08;9.80;99.90
27540;DHT22;15906;52.046;4.724;2024-03-25T17:46:33;9.80;99.90
27540;DHT22;15906;52.046;4.724;2024-03-25T17:49:04;9.70;99.90
27540;DHT22;15906;52.046;4.724;2024-03-25T17:51:30;9.70;99.90
27540;DHT22;15906;52.046;4.724;2024-03-25T17:53:57;9.60;99.90
27540;DHT22;15906;52.046;4.724;2024-03-25T17:56:22;9.60;99.90
27540;DHT22;15906;52.046;4.724;2024-03-25T17:58:48;9.60;99.90
27540;DHT22;15906;52.046;4.724;2024-03-25T18:01:13;9.60;99.90
27540;DHT22;15906;52.046;4.724;2024-03-25T18:03:39;9.50;99.90
27540;DHT22;15906;52.046;4.724;2024-03-25T18:06:04;9.50;99.90
27540;DHT22;15906;52.046;4.724;2024-03-25T18:08:30;9.40;99.90